sensor_id;sensor_type;location;lat;lon;timestamp;temperature;humidity
21759;DHT22;11041;50.854;20.580;2023-10-31T00:01:30;12.80;99.90
21759;DHT22;11041;50.854;20.580;2023-10-31T00:03:57;12.80;99.90
21759;DHT22;11041;50.854;20.580;2023-10-31T00:06:24;12.80;99.90
21759;DHT22;11041;50.854;20.580;2023-10-31T00:08:51;12.80;99.90
21759;DHT22;11041;50.854;20.580;2023-10-31T00:11:17;12.80;99.90
21759;DHT22;11041;50.854;20.580;2023-10-31T00:13:44;12.80;99.90
21759;DHT22;11041;50.854;20.580;2023-10-31T00:16:10;12.80;99.90
21759;DHT22;11041;50.854;20.580;2023-10-31T00:18:37;12.80;99.90
21759;DHT22;11041;50.854;20.580;2023-10-31T00:21:04;12.80;99.90
21759;DHT22;11041;50.854;20.580;2023-10-31T00:23:31;12.80;99.90
21759;DHT22;11041;50.854;20.580;2023-10-31T00:25:58;12.90;99.90
21759;DHT22;11041;50.854;20.580;2023-10-31T00:28:27;12.90;99.90
21759;DHT22;11041;50.854;20.580;2023-10-31T00:30:53;12.90;99.90
21759;DHT22;11041;50.854;20.580;2023-10-31T00:33:21;12.90;99.90
21759;DHT22;11041;50.854;20.580;2023-10-31T00:35:48;12.90;99.90
21759;DHT22;11041;50.854;20.580;2023-10-31T00:38:16;12.90;99.90
21759;DHT22;11041;50.854;20.580;2023-10-31T00:40:43;12.90;99.90
21759;DHT22;11041;50.854;20.580;2023-10-31T00:43:10;13.00;99.90
21759;DHT22;11041;50.854;20.580;2023-10-31T00:45:38;13.00;99.90
21759;DHT22;11041;50.854;20.580;2023-10-31T00:48:05;13.10;99.90
21759;DHT22;11041;50.854;20.580;2023-10-31T00:50:34;13.00;99.90
21759;DHT22;11041;50.854;20.580;2023-10-31T00:53:02;13.10;99.90
21759;DHT22;11041;50.854;20.580;2023-10-31T00:55:28;13.10;99.90
21759;DHT22;11041;50.854;20.580;2023-10-31T00:57:55;13.10;99.90
21759;DHT22;11041;50.854;20.580;2023-10-31T01:00:23;13.10;99.90
21759;DHT22;11041;50.854;20.580;2023-10-31T01:02:51;13.10;99.90
21759;DHT22;11041;50.854;20.580;2023-10-31T01:05:18;13.10;99.90
21759;DHT22;11041;50.854;20.580;2023-10-31T01:07:46;13.10;99.90
21759;DHT22;11041;50.854;20.580;2023-10-31T01:10:13;13.10;99.90
21759;DHT22;11041;50.854;20.580;2023-10-31T01:12:40;13.10;99.90
21759;DHT22;11041;50.854;20.580;2023-10-31T01:15:07;13.10;99.90
21759;DHT22;11041;50.854;20.580;2023-10-31T01:17:34;13.10;99.90
21759;DHT22;11041;50.854;20.580;2023-10-31T01:20:02;13.10;99.90
21759;DHT22;11041;50.854;20.580;2023-10-31T01:22:29;13.10;99.90
21759;DHT22;11041;50.854;20.580;2023-10-31T01:24:56;13.20;99.90
21759;DHT22;11041;50.854;20.580;2023-10-31T01:27:28;13.10;99.90
21759;DHT22;11041;50.854;20.580;2023-10-31T01:29:54;13.20;99.90
21759;DHT22;11041;50.854;20.580;2023-10-31T01:32:24;13.20;99.90
21759;DHT22;11041;50.854;20.580;2023-10-31T01:34:53;13.20;99.90
21759;DHT22;11041;50.854;20.580;2023-10-31T01:37:20;13.20;99.90
21759;DHT22;11041;50.854;20.580;2023-10-31T01:39:49;13.10;99.90
21759;DHT22;11041;50.854;20.580;2023-10-31T01:42:17;13.20;99.90
21759;DHT22;11041;50.854;20.580;2023-10-31T01:44:47;13.10;99.90
21759;DHT22;11041;50.854;20.580;2023-10-31T01:47:20;13.20;99.90
21759;DHT22;11041;50.854;20.580;2023-10-31T01:49:51;13.20;99.90
21759;DHT22;11041;50.854;20.580;2023-10-31T01:52:21;13.20;99.90
21759;DHT22;11041;50.854;20.580;2023-10-31T01:54:52;13.20;99.90
21759;DHT22;11041;50.854;20.580;2023-10-31T01:57:22;13.20;99.90
21759;DHT22;11041;50.854;20.580;2023-10-31T01:59:49;13.20;99.90
21759;DHT22;11041;50.854;20.580;2023-10-31T02:02:20;13.10;99.90
21759;DHT22;11041;50.854;20.580;2023-10-31T02:04:52;13.20;99.90
21759;DHT22;11041;50.854;20.580;2023-10-31T02:07:22;13.20;99.90
21759;DHT22;11041;50.854;20.580;2023-10-31T02:09:50;13.20;99.90
21759;DHT22;11041;50.854;20.580;2023-10-31T02:12:37;13.20;99.90
21759;DHT22;11041;50.854;20.580;2023-10-31T02:15:08;13.10;99.90
21759;DHT22;11041;50.854;20.580;2023-10-31T02:17:38;13.10;99.90
21759;DHT22;11041;50.854;20.580;2023-10-31T02:20:09;13.10;99.90
21759;DHT22;11041;50.854;20.580;2023-10-31T02:22:41;13.20;99.90
21759;DHT22;11041;50.854;20.580;2023-10-31T02:25:17;13.20;99.90
21759;DHT22;11041;50.854;20.580;2023-10-31T02:27:48;13.20;99.90
21759;DHT22;11041;50.854;20.580;2023-10-31T02:30:17;13.20;99.90
21759;DHT22;11041;50.854;20.580;2023-10-31T02:32:48;13.20;99.90
21759;DHT22;11041;50.854;20.580;2023-10-31T02:35:23;13.20;99.90
21759;DHT22;11041;50.854;20.580;2023-10-31T02:37:53;13.20;99.90
21759;DHT22;11041;50.854;20.580;2023-10-31T02:40:20;13.20;99.90
21759;DHT22;11041;50.854;20.580;2023-10-31T02:42:49;13.20;99.90
21759;DHT22;11041;50.854;20.580;2023-10-31T02:45:19;13.30;99.90
21759;DHT22;11041;50.854;20.580;2023-10-31T02:47:48;13.30;99.90
21759;DHT22;11041;50.854;20.580;2023-10-31T02:50:23;13.20;99.90
21759;DHT22;11041;50.854;20.580;2023-10-31T02:52:54;13.30;99.90
21759;DHT22;11041;50.854;20.580;2023-10-31T02:55:23;13.30;99.90
21759;DHT22;11041;50.854;20.580;2023-10-31T02:57:51;13.30;99.90
21759;DHT22;11041;50.854;20.580;2023-10-31T03:00:19;13.30;99.90
21759;DHT22;11041;50.854;20.580;2023-10-31T03:02:46;13.40;99.90
21759;DHT22;11041;50.854;20.580;2023-10-31T03:05:15;13.40;99.90
21759;DHT22;11041;50.854;20.580;2023-10-31T03:07:42;13.40;99.90
21759;DHT22;11041;50.854;20.580;2023-10-31T03:10:13;13.40;99.90
21759;DHT22;11041;50.854;20.580;2023-10-31T03:12:42;13.40;99.90
21759;DHT22;11041;50.854;20.580;2023-10-31T03:15:12;13.50;99.90
21759;DHT22;11041;50.854;20.580;2023-10-31T03:17:42;13.50;99.90
21759;DHT22;11041;50.854;20.580;2023-10-31T03:20:13;13.50;99.90
21759;DHT22;11041;50.854;20.580;2023-10-31T03:22:40;13.50;99.90
21759;DHT22;11041;50.854;20.580;2023-10-31T03:25:06;13.50;99.90
21759;DHT22;11041;50.854;20.580;2023-10-31T03:27:39;13.60;99.90
21759;DHT22;11041;50.854;20.580;2023-10-31T03:30:11;13.60;99.90
21759;DHT22;11041;50.854;20.580;2023-10-31T03:32:42;13.60;99.90
21759;DHT22;11041;50.854;20.580;2023-10-31T03:35:15;13.70;99.90
21759;DHT22;11041;50.854;20.580;2023-10-31T03:37:47;13.70;99.90
21759;DHT22;11041;50.854;20.580;2023-10-31T03:40:13;13.70;99.90
21759;DHT22;11041;50.854;20.580;2023-10-31T03:42:42;13.70;99.90
21759;DHT22;11041;50.854;20.580;2023-10-31T03:45:16;13.80;99.90
21759;DHT22;11041;50.854;20.580;2023-10-31T03:47:42;13.80;99.90
21759;DHT22;11041;50.854;20.580;2023-10-31T03:50:13;13.90;99.90
21759;DHT22;11041;50.854;20.580;2023-10-31T03:52:43;13.90;99.90
21759;DHT22;11041;50.854;20.580;2023-10-31T03:55:17;13.90;99.90
21759;DHT22;11041;50.854;20.580;2023-10-31T03:57:48;13.90;99.90
21759;DHT22;11041;50.854;20.580;2023-10-31T04:00:19;14.00;99.90
21759;DHT22;11041;50.854;20.580;2023-10-31T04:02:52;14.00;99.90
21759;DHT22;11041;50.854;20.580;2023-10-31T04:05:24;14.10;99.90
21759;DHT22;11041;50.854;20.580;2023-10-31T04:07:56;14.10;99.90
21759;DHT22;11041;50.854;20.580;2023-10-31T04:10:25;14.10;99.90
21759;DHT22;11041;50.854;20.580;2023-10-31T04:12:52;14.20;99.90
21759;DHT22;11041;50.854;20.580;2023-10-31T04:15:22;14.20;99.90
21759;DHT22;11041;50.854;20.580;2023-10-31T04:17:53;14.20;99.90
21759;DHT22;11041;50.854;20.580;2023-10-31T04:20:23;14.30;99.90
21759;DHT22;11041;50.854;20.580;2023-10-31T04:22:52;14.40;99.90
21759;DHT22;11041;50.854;20.580;2023-10-31T04:25:22;14.40;99.90
21759;DHT22;11041;50.854;20.580;2023-10-31T04:27:53;14.40;99.90
21759;DHT22;11041;50.854;20.580;2023-10-31T04:30:23;14.40;99.90
21759;DHT22;11041;50.854;20.580;2023-10-31T04:32:53;14.40;99.90
21759;DHT22;11041;50.854;20.580;2023-10-31T04:35:22;14.40;99.90
21759;DHT22;11041;50.854;20.580;2023-10-31T04:37:50;14.40;99.90
21759;DHT22;11041;50.854;20.580;2023-10-31T04:40:18;14.40;99.90
21759;DHT22;11041;50.854;20.580;2023-10-31T04:42:47;14.40;99.90
21759;DHT22;11041;50.854;20.580;2023-10-31T04:45:19;14.40;99.90
21759;DHT22;11041;50.854;20.580;2023-10-31T04:47:46;14.40;99.90
21759;DHT22;11041;50.854;20.580;2023-10-31T04:50:16;14.50;99.90
21759;DHT22;11041;50.854;20.580;2023-10-31T04:52:47;14.50;99.90
21759;DHT22;11041;50.854;20.580;2023-10-31T04:55:16;14.40;99.90
21759;DHT22;11041;50.854;20.580;2023-10-31T04:57:47;14.50;99.90
21759;DHT22;11041;50.854;20.580;2023-10-31T05:00:19;14.50;99.90
21759;DHT22;11041;50.854;20.580;2023-10-31T05:02:48;14.50;99.90
21759;DHT22;11041;50.854;20.580;2023-10-31T05:05:21;14.40;99.90
21759;DHT22;11041;50.854;20.580;2023-10-31T05:07:50;14.40;99.90
21759;DHT22;11041;50.854;20.580;2023-10-31T05:10:23;14.40;99.90
21759;DHT22;11041;50.854;20.580;2023-10-31T05:12:51;14.50;99.90
21759;DHT22;11041;50.854;20.580;2023-10-31T05:15:24;14.50;99.90
21759;DHT22;11041;50.854;20.580;2023-10-31T05:17:50;14.50;99.90
21759;DHT22;11041;50.854;20.580;2023-10-31T05:20:20;14.40;99.90
21759;DHT22;11041;50.854;20.580;2023-10-31T05:22:50;14.50;99.90
21759;DHT22;11041;50.854;20.580;2023-10-31T05:25:18;14.50;99.90
21759;DHT22;11041;50.854;20.580;2023-10-31T05:27:50;14.50;99.90
21759;DHT22;11041;50.854;20.580;2023-10-31T05:30:21;14.40;99.90
21759;DHT22;11041;50.854;20.580;2023-10-31T05:32:49;14.40;99.90
21759;DHT22;11041;50.854;20.580;2023-10-31T05:35:21;14.50;99.90
21759;DHT22;11041;50.854;20.580;2023-10-31T05:37:49;14.50;99.90
21759;DHT22;11041;50.854;20.580;2023-10-31T05:40:21;14.40;99.90
21759;DHT22;11041;50.854;20.580;2023-10-31T05:42:55;14.50;99.90
21759;DHT22;11041;50.854;20.580;2023-10-31T05:45:24;14.50;99.90
21759;DHT22;11041;50.854;20.580;2023-10-31T05:47:51;14.50;99.90
21759;DHT22;11041;50.854;20.580;2023-10-31T05:50:17;14.50;99.90
21759;DHT22;11041;50.854;20.580;2023-10-31T05:52:46;14.50;99.90
21759;DHT22;11041;50.854;20.580;2023-10-31T05:55:13;14.60;99.90
21759;DHT22;11041;50.854;20.580;2023-10-31T05:57:41;14.60;99.90
21759;DHT22;11041;50.854;20.580;2023-10-31T06:00:08;14.80;99.90
21759;DHT22;11041;50.854;20.580;2023-10-31T06:02:35;14.80;99.90
21759;DHT22;11041;50.854;20.580;2023-10-31T06:05:06;14.90;99.90
21759;DHT22;11041;50.854;20.580;2023-10-31T06:07:33;14.90;99.90
21759;DHT22;11041;50.854;20.580;2023-10-31T06:10:01;14.90;99.90
21759;DHT22;11041;50.854;20.580;2023-10-31T06:12:31;15.00;99.90
21759;DHT22;11041;50.854;20.580;2023-10-31T06:14:58;15.10;99.90
21759;DHT22;11041;50.854;20.580;2023-10-31T06:17:25;15.10;99.90
21759;DHT22;11041;50.854;20.580;2023-10-31T06:19:53;15.10;99.90
21759;DHT22;11041;50.854;20.580;2023-10-31T06:22:20;15.10;99.90
21759;DHT22;11041;50.854;20.580;2023-10-31T06:24:46;15.10;99.90
21759;DHT22;11041;50.854;20.580;2023-10-31T06:27:15;15.10;99.90
21759;DHT22;11041;50.854;20.580;2023-10-31T06:29:43;15.10;99.90
21759;DHT22;11041;50.854;20.580;2023-10-31T06:32:13;15.10;99.90
21759;DHT22;11041;50.854;20.580;2023-10-31T06:34:40;14.20;99.90
21759;DHT22;11041;50.854;20.580;2023-10-31T06:37:07;15.10;99.90
21759;DHT22;11041;50.854;20.580;2023-10-31T06:39:37;15.10;99.90
21759;DHT22;11041;50.854;20.580;2023-10-31T06:42:04;15.10;99.90
21759;DHT22;11041;50.854;20.580;2023-10-31T06:44:36;15.10;99.90
21759;DHT22;11041;50.854;20.580;2023-10-31T06:47:04;15.10;99.90
21759;DHT22;11041;50.854;20.580;2023-10-31T06:49:31;15.10;99.90
21759;DHT22;11041;50.854;20.580;2023-10-31T06:51:59;15.20;99.90
21759;DHT22;11041;50.854;20.580;2023-10-31T06:54:26;15.20;99.90
21759;DHT22;11041;50.854;20.580;2023-10-31T06:56:55;15.20;99.90
21759;DHT22;11041;50.854;20.580;2023-10-31T06:59:23;15.20;99.90
21759;DHT22;11041;50.854;20.580;2023-10-31T07:01:51;15.20;99.90
21759;DHT22;11041;50.854;20.580;2023-10-31T07:04:19;15.20;99.90
21759;DHT22;11041;50.854;20.580;2023-10-31T07:06:49;15.20;99.90
21759;DHT22;11041;50.854;20.580;2023-10-31T07:09:18;15.20;99.90
21759;DHT22;11041;50.854;20.580;2023-10-31T07:11:47;15.20;99.90
21759;DHT22;11041;50.854;20.580;2023-10-31T07:14:20;15.20;99.90
21759;DHT22;11041;50.854;20.580;2023-10-31T07:16:49;15.20;99.90
21759;DHT22;11041;50.854;20.580;2023-10-31T07:19:17;15.20;99.90
21759;DHT22;11041;50.854;20.580;2023-10-31T07:21:47;15.30;99.90
21759;DHT22;11041;50.854;20.580;2023-10-31T07:24:20;15.30;99.90
21759;DHT22;11041;50.854;20.580;2023-10-31T07:26:49;15.30;99.90
21759;DHT22;11041;50.854;20.580;2023-10-31T07:29:15;15.30;99.90
21759;DHT22;11041;50.854;20.580;2023-10-31T07:31:42;15.40;99.90
21759;DHT22;11041;50.854;20.580;2023-10-31T07:34:12;15.40;99.90
21759;DHT22;11041;50.854;20.580;2023-10-31T07:36:38;15.30;99.90
21759;DHT22;11041;50.854;20.580;2023-10-31T07:39:12;15.40;99.90
21759;DHT22;11041;50.854;20.580;2023-10-31T07:41:40;15.40;99.90
21759;DHT22;11041;50.854;20.580;2023-10-31T07:44:10;15.40;99.90
21759;DHT22;11041;50.854;20.580;2023-10-31T07:46:39;15.40;99.90
21759;DHT22;11041;50.854;20.580;2023-10-31T07:49:06;15.40;99.90
21759;DHT22;11041;50.854;20.580;2023-10-31T07:51:38;15.40;99.90
21759;DHT22;11041;50.854;20.580;2023-10-31T07:54:09;15.40;99.90
21759;DHT22;11041;50.854;20.580;2023-10-31T07:56:40;15.40;99.90
21759;DHT22;11041;50.854;20.580;2023-10-31T07:59:07;15.40;99.90
21759;DHT22;11041;50.854;20.580;2023-10-31T08:01:37;15.40;99.90
21759;DHT22;11041;50.854;20.580;2023-10-31T08:04:05;15.40;99.90
21759;DHT22;11041;50.854;20.580;2023-10-31T08:06:38;15.40;99.90
21759;DHT22;11041;50.854;20.580;2023-10-31T08:09:05;15.40;99.90
21759;DHT22;11041;50.854;20.580;2023-10-31T08:11:31;15.40;99.90
21759;DHT22;11041;50.854;20.580;2023-10-31T08:14:02;15.30;99.90
21759;DHT22;11041;50.854;20.580;2023-10-31T08:16:28;15.30;99.90
21759;DHT22;11041;50.854;20.580;2023-10-31T08:18:55;15.30;99.90
21759;DHT22;11041;50.854;20.580;2023-10-31T08:21:23;15.30;99.90
21759;DHT22;11041;50.854;20.580;2023-10-31T08:23:53;15.30;99.90
21759;DHT22;11041;50.854;20.580;2023-10-31T08:26:20;15.30;99.90
21759;DHT22;11041;50.854;20.580;2023-10-31T08:28:49;15.30;99.90
21759;DHT22;11041;50.854;20.580;2023-10-31T08:31:17;15.30;99.90
21759;DHT22;11041;50.854;20.580;2023-10-31T08:33:46;15.30;99.90
21759;DHT22;11041;50.854;20.580;2023-10-31T08:36:13;15.30;99.90
21759;DHT22;11041;50.854;20.580;2023-10-31T08:38:40;15.40;99.90
21759;DHT22;11041;50.854;20.580;2023-10-31T08:41:09;15.30;99.90
21759;DHT22;11041;50.854;20.580;2023-10-31T08:43:35;15.50;99.90
21759;DHT22;11041;50.854;20.580;2023-10-31T08:46:04;15.50;99.90
21759;DHT22;11041;50.854;20.580;2023-10-31T08:48:34;15.60;99.90
21759;DHT22;11041;50.854;20.580;2023-10-31T08:51:04;15.60;99.90
21759;DHT22;11041;50.854;20.580;2023-10-31T08:53:31;15.70;99.90
21759;DHT22;11041;50.854;20.580;2023-10-31T08:55:57;15.80;99.90
21759;DHT22;11041;50.854;20.580;2023-10-31T08:58:24;15.80;99.90
21759;DHT22;11041;50.854;20.580;2023-10-31T09:00:52;15.80;99.90
21759;DHT22;11041;50.854;20.580;2023-10-31T09:03:19;15.90;99.90
21759;DHT22;11041;50.854;20.580;2023-10-31T09:05:45;15.90;99.90
21759;DHT22;11041;50.854;20.580;2023-10-31T09:08:15;16.00;99.90
21759;DHT22;11041;50.854;20.580;2023-10-31T09:10:43;16.00;99.90
21759;DHT22;11041;50.854;20.580;2023-10-31T09:13:13;16.00;99.90
21759;DHT22;11041;50.854;20.580;2023-10-31T09:15:43;16.00;99.90
21759;DHT22;11041;50.854;20.580;2023-10-31T09:18:13;16.00;99.90
21759;DHT22;11041;50.854;20.580;2023-10-31T09:20:42;16.00;99.90
21759;DHT22;11041;50.854;20.580;2023-10-31T09:23:09;16.00;99.90
21759;DHT22;11041;50.854;20.580;2023-10-31T09:25:40;16.00;99.90
21759;DHT22;11041;50.854;20.580;2023-10-31T09:28:10;16.00;99.90
21759;DHT22;11041;50.854;20.580;2023-10-31T09:30:36;16.00;99.90
21759;DHT22;11041;50.854;20.580;2023-10-31T09:33:08;16.10;99.90
21759;DHT22;11041;50.854;20.580;2023-10-31T09:35:39;16.10;99.90
21759;DHT22;11041;50.854;20.580;2023-10-31T09:38:09;16.20;99.90
21759;DHT22;11041;50.854;20.580;2023-10-31T09:40:38;16.30;99.90
21759;DHT22;11041;50.854;20.580;2023-10-31T09:43:05;16.40;99.90
21759;DHT22;11041;50.854;20.580;2023-10-31T09:45:35;16.50;99.90
21759;DHT22;11041;50.854;20.580;2023-10-31T09:48:02;16.60;99.90
21759;DHT22;11041;50.854;20.580;2023-10-31T09:50:29;16.70;99.90
21759;DHT22;11041;50.854;20.580;2023-10-31T09:52:58;16.80;99.90
21759;DHT22;11041;50.854;20.580;2023-10-31T09:55:27;17.00;99.90
21759;DHT22;11041;50.854;20.580;2023-10-31T09:57:57;17.00;99.90
21759;DHT22;11041;50.854;20.580;2023-10-31T10:00:23;17.10;99.90
21759;DHT22;11041;50.854;20.580;2023-10-31T10:02:51;17.30;99.90
21759;DHT22;11041;50.854;20.580;2023-10-31T10:05:20;17.30;99.90
21759;DHT22;11041;50.854;20.580;2023-10-31T10:07:53;17.40;99.90
21759;DHT22;11041;50.854;20.580;2023-10-31T10:10:22;17.60;99.90
21759;DHT22;11041;50.854;20.580;2023-10-31T10:12:51;17.60;99.90
21759;DHT22;11041;50.854;20.580;2023-10-31T10:15:21;17.60;99.90
21759;DHT22;11041;50.854;20.580;2023-10-31T10:17:50;17.70;99.90
21759;DHT22;11041;50.854;20.580;2023-10-31T10:20:19;17.70;99.90
21759;DHT22;11041;50.854;20.580;2023-10-31T10:22:46;17.70;99.90
21759;DHT22;11041;50.854;20.580;2023-10-31T10:25:15;17.70;99.90
21759;DHT22;11041;50.854;20.580;2023-10-31T10:27:50;17.70;99.90
21759;DHT22;11041;50.854;20.580;2023-10-31T10:30:20;17.60;99.90
21759;DHT22;11041;50.854;20.580;2023-10-31T10:32:52;17.70;99.90
21759;DHT22;11041;50.854;20.580;2023-10-31T10:35:19;17.80;99.90
21759;DHT22;11041;50.854;20.580;2023-10-31T10:37:46;17.90;99.90
21759;DHT22;11041;50.854;20.580;2023-10-31T10:40:16;17.90;99.90
21759;DHT22;11041;50.854;20.580;2023-10-31T10:42:47;18.00;99.90
21759;DHT22;11041;50.854;20.580;2023-10-31T10:45:16;18.00;99.90
21759;DHT22;11041;50.854;20.580;2023-10-31T10:47:47;18.00;99.90
21759;DHT22;11041;50.854;20.580;2023-10-31T10:50:17;17.90;99.90
21759;DHT22;11041;50.854;20.580;2023-10-31T10:53:00;17.90;99.90
21759;DHT22;11041;50.854;20.580;2023-10-31T10:55:39;17.90;99.90
21759;DHT22;11041;50.854;20.580;2023-10-31T10:58:28;17.90;99.90
21759;DHT22;11041;50.854;20.580;2023-10-31T11:01:10;18.10;99.90
21759;DHT22;11041;50.854;20.580;2023-10-31T11:03:37;18.20;99.90
21759;DHT22;11041;50.854;20.580;2023-10-31T11:06:07;18.20;99.90
21759;DHT22;11041;50.854;20.580;2023-10-31T11:08:40;18.20;99.90
21759;DHT22;11041;50.854;20.580;2023-10-31T11:11:07;18.20;99.90
21759;DHT22;11041;50.854;20.580;2023-10-31T11:13:40;18.20;99.90
21759;DHT22;11041;50.854;20.580;2023-10-31T11:16:19;18.20;99.90
21759;DHT22;11041;50.854;20.580;2023-10-31T11:18:54;18.30;99.90
21759;DHT22;11041;50.854;20.580;2023-10-31T11:21:28;18.30;99.90
21759;DHT22;11041;50.854;20.580;2023-10-31T11:24:00;18.20;99.90
21759;DHT22;11041;50.854;20.580;2023-10-31T11:26:32;18.10;99.90
21759;DHT22;11041;50.854;20.580;2023-10-31T11:29:06;18.20;99.90
21759;DHT22;11041;50.854;20.580;2023-10-31T11:31:39;18.10;99.90
21759;DHT22;11041;50.854;20.580;2023-10-31T11:34:08;18.10;99.90
21759;DHT22;11041;50.854;20.580;2023-10-31T11:36:39;18.00;99.90
21759;DHT22;11041;50.854;20.580;2023-10-31T11:39:17;18.10;99.90
21759;DHT22;11041;50.854;20.580;2023-10-31T11:41:58;18.00;99.90
21759;DHT22;11041;50.854;20.580;2023-10-31T11:44:29;18.00;99.90
21759;DHT22;11041;50.854;20.580;2023-10-31T11:46:58;17.90;99.90
21759;DHT22;11041;50.854;20.580;2023-10-31T11:49:47;17.90;99.90
21759;DHT22;11041;50.854;20.580;2023-10-31T11:52:22;17.90;99.90
21759;DHT22;11041;50.854;20.580;2023-10-31T11:54:55;17.90;99.90
21759;DHT22;11041;50.854;20.580;2023-10-31T11:57:28;17.90;99.90
21759;DHT22;11041;50.854;20.580;2023-10-31T11:59:56;17.80;99.90
21759;DHT22;11041;50.854;20.580;2023-10-31T12:02:23;17.90;99.90
21759;DHT22;11041;50.854;20.580;2023-10-31T12:05:07;17.80;99.90
21759;DHT22;11041;50.854;20.580;2023-10-31T12:07:45;17.90;99.90
21759;DHT22;11041;50.854;20.580;2023-10-31T12:10:25;18.00;99.90
21759;DHT22;11041;50.854;20.580;2023-10-31T12:12:58;18.00;99.90
21759;DHT22;11041;50.854;20.580;2023-10-31T12:15:25;17.90;99.90
21759;DHT22;11041;50.854;20.580;2023-10-31T12:17:52;17.80;99.90
21759;DHT22;11041;50.854;20.580;2023-10-31T12:20:24;17.70;99.90
21759;DHT22;11041;50.854;20.580;2023-10-31T12:23:02;17.60;99.90
21759;DHT22;11041;50.854;20.580;2023-10-31T12:25:32;17.40;99.90
21759;DHT22;11041;50.854;20.580;2023-10-31T12:28:01;17.40;99.90
21759;DHT22;11041;50.854;20.580;2023-10-31T12:30:28;17.40;99.90
21759;DHT22;11041;50.854;20.580;2023-10-31T12:32:56;17.40;99.90
21759;DHT22;11041;50.854;20.580;2023-10-31T12:35:25;17.40;99.90
21759;DHT22;11041;50.854;20.580;2023-10-31T12:37:53;17.30;99.90
21759;DHT22;11041;50.854;20.580;2023-10-31T12:40:25;17.30;99.90
21759;DHT22;11041;50.854;20.580;2023-10-31T12:42:56;17.30;99.90
21759;DHT22;11041;50.854;20.580;2023-10-31T12:45:33;17.20;99.90
21759;DHT22;11041;50.854;20.580;2023-10-31T12:48:04;17.10;99.90
21759;DHT22;11041;50.854;20.580;2023-10-31T12:50:37;17.10;99.90
21759;DHT22;11041;50.854;20.580;2023-10-31T12:53:07;17.10;99.90
21759;DHT22;11041;50.854;20.580;2023-10-31T12:55:42;17.00;99.90
21759;DHT22;11041;50.854;20.580;2023-10-31T12:58:20;17.00;99.90
21759;DHT22;11041;50.854;20.580;2023-10-31T13:00:52;16.90;99.90
21759;DHT22;11041;50.854;20.580;2023-10-31T13:03:25;16.80;99.90
21759;DHT22;11041;50.854;20.580;2023-10-31T13:05:55;16.80;99.90
21759;DHT22;11041;50.854;20.580;2023-10-31T13:08:24;16.80;99.90
21759;DHT22;11041;50.854;20.580;2023-10-31T13:10:56;16.80;99.90
21759;DHT22;11041;50.854;20.580;2023-10-31T13:13:27;16.80;99.90
21759;DHT22;11041;50.854;20.580;2023-10-31T13:15:57;16.80;99.90
21759;DHT22;11041;50.854;20.580;2023-10-31T13:18:28;16.70;99.90
21759;DHT22;11041;50.854;20.580;2023-10-31T13:20:57;16.70;99.90
21759;DHT22;11041;50.854;20.580;2023-10-31T13:23:29;16.70;99.90
21759;DHT22;11041;50.854;20.580;2023-10-31T13:25:59;16.60;99.90
21759;DHT22;11041;50.854;20.580;2023-10-31T13:28:27;16.50;99.90
21759;DHT22;11041;50.854;20.580;2023-10-31T13:31:00;16.60;99.90
21759;DHT22;11041;50.854;20.580;2023-10-31T13:33:30;16.60;99.90
21759;DHT22;11041;50.854;20.580;2023-10-31T13:35:57;16.70;99.90
21759;DHT22;11041;50.854;20.580;2023-10-31T13:38:31;16.70;99.90
21759;DHT22;11041;50.854;20.580;2023-10-31T13:41:02;16.60;99.90
21759;DHT22;11041;50.854;20.580;2023-10-31T13:43:28;16.70;99.90
21759;DHT22;11041;50.854;20.580;2023-10-31T13:45:55;16.70;99.90
21759;DHT22;11041;50.854;20.580;2023-10-31T13:48:23;16.50;99.90
21759;DHT22;11041;50.854;20.580;2023-10-31T13:50:55;16.40;99.90
21759;DHT22;11041;50.854;20.580;2023-10-31T13:53:24;16.50;99.90
21759;DHT22;11041;50.854;20.580;2023-10-31T13:55:53;16.40;99.90
21759;DHT22;11041;50.854;20.580;2023-10-31T13:58:23;16.40;99.90
21759;DHT22;11041;50.854;20.580;2023-10-31T14:00:53;16.30;99.90
21759;DHT22;11041;50.854;20.580;2023-10-31T14:03:22;16.30;99.90
21759;DHT22;11041;50.854;20.580;2023-10-31T14:05:50;16.30;99.90
21759;DHT22;11041;50.854;20.580;2023-10-31T14:08:16;16.30;99.90
21759;DHT22;11041;50.854;20.580;2023-10-31T14:10:46;16.30;99.90
21759;DHT22;11041;50.854;20.580;2023-10-31T14:13:13;16.30;99.90
21759;DHT22;11041;50.854;20.580;2023-10-31T14:15:45;16.20;99.90
21759;DHT22;11041;50.854;20.580;2023-10-31T14:18:17;16.20;99.90
21759;DHT22;11041;50.854;20.580;2023-10-31T14:20:43;16.20;99.90
21759;DHT22;11041;50.854;20.580;2023-10-31T14:23:12;16.10;99.90
21759;DHT22;11041;50.854;20.580;2023-10-31T14:25:39;16.10;99.90
21759;DHT22;11041;50.854;20.580;2023-10-31T14:28:10;16.10;99.90
21759;DHT22;11041;50.854;20.580;2023-10-31T14:30:41;16.10;99.90
21759;DHT22;11041;50.854;20.580;2023-10-31T14:33:08;16.00;99.90
21759;DHT22;11041;50.854;20.580;2023-10-31T14:35:38;16.00;99.90
21759;DHT22;11041;50.854;20.580;2023-10-31T14:38:06;15.90;99.90
21759;DHT22;11041;50.854;20.580;2023-10-31T14:40:32;15.90;99.90
21759;DHT22;11041;50.854;20.580;2023-10-31T14:42:59;15.90;99.90
21759;DHT22;11041;50.854;20.580;2023-10-31T14:45:26;15.80;99.90
21759;DHT22;11041;50.854;20.580;2023-10-31T14:47:53;15.70;99.90
21759;DHT22;11041;50.854;20.580;2023-10-31T14:50:24;15.60;99.90
21759;DHT22;11041;50.854;20.580;2023-10-31T14:52:51;15.60;99.90
21759;DHT22;11041;50.854;20.580;2023-10-31T14:55:19;15.40;99.90
21759;DHT22;11041;50.854;20.580;2023-10-31T14:57:48;15.40;99.90
21759;DHT22;11041;50.854;20.580;2023-10-31T15:00:15;15.20;99.90
21759;DHT22;11041;50.854;20.580;2023-10-31T15:02:45;15.30;99.90
21759;DHT22;11041;50.854;20.580;2023-10-31T15:05:16;15.30;99.90
21759;DHT22;11041;50.854;20.580;2023-10-31T15:07:42;15.30;99.90
21759;DHT22;11041;50.854;20.580;2023-10-31T15:10:11;15.20;99.90
21759;DHT22;11041;50.854;20.580;2023-10-31T15:12:40;15.20;99.90
21759;DHT22;11041;50.854;20.580;2023-10-31T15:15:12;15.20;99.90
21759;DHT22;11041;50.854;20.580;2023-10-31T15:17:41;15.20;99.90
21759;DHT22;11041;50.854;20.580;2023-10-31T15:20:12;15.10;99.90
21759;DHT22;11041;50.854;20.580;2023-10-31T15:22:46;15.10;99.90
21759;DHT22;11041;50.854;20.580;2023-10-31T15:25:17;15.00;99.90
21759;DHT22;11041;50.854;20.580;2023-10-31T15:27:51;15.00;99.90
21759;DHT22;11041;50.854;20.580;2023-10-31T15:30:17;14.60;99.90